createdAt,value
2018-03-31T00:02:25.215Z,13.30
2018-03-31T00:04:53.874Z,15.33
2018-03-31T00:07:22.493Z,13.93
2018-03-31T00:09:51.110Z,13.70
2018-03-31T00:12:19.767Z,12.90
2018-03-31T00:14:48.530Z,13.73
2018-03-31T00:17:17.142Z,16.07
2018-03-31T00:19:46.510Z,17.33
2018-03-31T00:22:15.112Z,16.43
2018-03-31T00:24:43.967Z,17.60
2018-03-31T00:27:12.631Z,14.77
2018-03-31T00:29:41.244Z,16.23
2018-03-31T00:32:09.923Z,16.00
2018-03-31T00:34:38.738Z,12.93
2018-03-31T00:37:07.436Z,13.27
2018-03-31T00:39:36.031Z,15.93
2018-03-31T00:42:04.671Z,18.10
2018-03-31T00:44:33.277Z,17.20
2018-03-31T00:47:02.333Z,13.30
2018-03-31T00:49:30.928Z,13.73
2018-03-31T00:51:59.547Z,14.00
2018-03-31T00:54:28.198Z,13.30
2018-03-31T00:56:56.846Z,12.07
2018-03-31T00:59:25.450Z,13.20
2018-03-31T01:01:54.483Z,12.20
2018-03-31T01:04:23.100Z,14.60
2018-03-31T01:06:51.716Z,13.07
2018-03-31T01:09:20.507Z,15.13
2018-03-31T01:11:49.135Z,15.40
2018-03-31T01:14:19.450Z,13.40
2018-03-31T01:16:48.083Z,12.70
2018-03-31T01:19:16.700Z,12.33
2018-03-31T01:21:45.619Z,14.93
2018-03-31T01:24:14.244Z,15.50
2018-03-31T01:26:42.903Z,16.60
2018-03-31T01:29:11.531Z,14.80
2018-03-31T01:31:40.141Z,13.40
2018-03-31T01:34:09.868Z,12.80
2018-03-31T01:36:38.478Z,12.73
2018-03-31T01:39:07.112Z,11.17
2018-03-31T01:41:35.746Z,12.63
2018-03-31T01:44:04.358Z,10.83
2018-03-31T01:46:32.963Z,11.53
2018-03-31T01:49:02.495Z,14.63
2018-03-31T01:51:31.102Z,14.33
2018-03-31T01:53:59.710Z,14.67
2018-03-31T01:56:29.181Z,13.63
2018-03-31T01:58:59.286Z,14.07
2018-03-31T02:01:27.927Z,13.80
2018-03-31T02:03:56.769Z,15.23
2018-03-31T02:06:25.379Z,15.20
2018-03-31T02:08:53.982Z,14.73
2018-03-31T02:11:22.589Z,17.00
2018-03-31T02:13:51.187Z,14.83
2018-03-31T02:16:20.171Z,15.97
2018-03-31T02:18:48.778Z,14.00
2018-03-31T02:21:17.383Z,15.53
2018-03-31T02:23:46.042Z,14.20
2018-03-31T02:26:14.642Z,15.13
2018-03-31T02:28:43.242Z,15.13
2018-03-31T02:31:11.894Z,16.07
2018-03-31T02:33:40.498Z,15.77
2018-03-31T02:36:09.128Z,15.43
2018-03-31T02:38:38.887Z,17.30
2018-03-31T02:41:07.498Z,15.97
2018-03-31T02:43:36.260Z,15.50
2018-03-31T02:46:05.763Z,16.07
2018-03-31T02:48:34.372Z,16.67
2018-03-31T02:51:03.107Z,16.60
2018-03-31T02:53:31.740Z,16.60
2018-03-31T02:56:00.354Z,14.77
2018-03-31T02:58:29.335Z,17.23
2018-03-31T03:00:57.949Z,15.17
2018-03-31T03:03:26.539Z,16.20
2018-03-31T03:05:55.183Z,14.80
2018-03-31T03:08:23.787Z,15.87
2018-03-31T03:10:52.474Z,12.80
2018-03-31T03:13:21.136Z,12.90
2018-03-31T03:15:49.755Z,14.97
2018-03-31T03:18:18.359Z,13.70
2018-03-31T03:20:47.792Z,14.37
2018-03-31T03:23:16.399Z,12.93
2018-03-31T03:25:45.011Z,14.13
2018-03-31T03:28:13.655Z,14.00
2018-03-31T03:30:42.267Z,13.33
2018-03-31T03:33:10.981Z,13.20
2018-03-31T03:35:39.630Z,15.13
2018-03-31T03:38:08.503Z,14.57
2018-03-31T03:40:37.098Z,14.33
2018-03-31T03:43:06.293Z,13.13
2018-03-31T03:45:35.103Z,13.37
2018-03-31T03:48:03.717Z,15.60
2018-03-31T03:50:32.399Z,13.00
2018-03-31T03:53:01.007Z,13.93
2018-03-31T03:55:29.722Z,12.87
2018-03-31T03:57:59.307Z,11.67
2018-03-31T04:00:27.911Z,12.17
2018-03-31T04:02:56.523Z,13.10
2018-03-31T04:05:25.210Z,13.53
2018-03-31T04:07:53.767Z,13.87
2018-03-31T04:10:22.401Z,13.47
2018-03-31T04:12:51.019Z,14.10
2018-03-31T04:15:19.622Z,13.97
2018-03-31T04:17:48.900Z,18.27
2018-03-31T04:20:17.547Z,14.17
2018-03-31T04:22:46.168Z,14.60
2018-03-31T04:25:14.810Z,15.27
2018-03-31T04:27:43.446Z,14.63
2018-03-31T04:30:12.050Z,17.10
2018-03-31T04:32:40.731Z,15.00
2018-03-31T04:35:09.322Z,14.27
2018-03-31T04:37:37.937Z,16.20
2018-03-31T04:40:06.575Z,16.10
2018-03-31T04:42:35.194Z,18.53
2018-03-31T04:45:03.808Z,16.47
2018-03-31T04:47:32.745Z,18.07
2018-03-31T04:50:01.350Z,15.37
2018-03-31T04:52:29.950Z,16.60
2018-03-31T04:54:59.607Z,14.33
2018-03-31T04:57:28.218Z,14.83
2018-03-31T04:59:56.833Z,18.03
2018-03-31T05:02:25.773Z,15.93
2018-03-31T05:04:54.381Z,16.60
2018-03-31T05:07:23.003Z,18.70
2018-03-31T05:09:51.601Z,15.47
2018-03-31T05:12:24.406Z,16.30
2018-03-31T05:14:53.255Z,17.00
2018-03-31T05:17:21.922Z,20.40
2018-03-31T05:19:50.528Z,24.60
2018-03-31T05:22:19.182Z,20.33
2018-03-31T05:24:47.799Z,19.03
2018-03-31T05:27:16.410Z,16.93
2018-03-31T05:29:45.923Z,16.30
2018-03-31T05:32:14.526Z,15.87
2018-03-31T05:34:43.135Z,19.67
2018-03-31T05:37:11.801Z,15.63
2018-03-31T05:39:40.422Z,20.37
2018-03-31T05:42:09.078Z,22.20
2018-03-31T05:44:37.798Z,17.47
2018-03-31T05:47:06.399Z,23.33
2018-03-31T05:49:35.878Z,18.93
2018-03-31T05:52:04.464Z,17.23
2018-03-31T05:54:33.062Z,18.77
2018-03-31T05:57:01.710Z,20.30
2018-03-31T05:59:30.314Z,18.30
2018-03-31T06:01:58.926Z,15.27
2018-03-31T06:04:27.703Z,15.73
2018-03-31T06:06:56.306Z,16.20
2018-03-31T06:09:24.927Z,15.27
2018-03-31T06:11:53.567Z,16.57
2018-03-31T06:14:22.168Z,14.57
2018-03-31T06:16:50.826Z,14.03
2018-03-31T06:19:19.445Z,14.50
2018-03-31T06:21:48.150Z,18.30
2018-03-31T06:24:17.067Z,14.87
2018-03-31T06:26:45.679Z,18.87
2018-03-31T06:29:14.411Z,18.83
2018-03-31T06:31:43.601Z,15.60
2018-03-31T06:34:12.206Z,19.00
2018-03-31T06:36:40.819Z,16.50
2018-03-31T06:39:09.501Z,17.43
2018-03-31T06:41:38.108Z,20.30
2018-03-31T06:44:06.732Z,17.97
2018-03-31T06:46:35.578Z,21.43
2018-03-31T06:49:05.171Z,22.67
2018-03-31T06:51:33.778Z,22.63
2018-03-31T06:54:02.427Z,16.50
2018-03-31T06:56:31.032Z,15.20
2018-03-31T06:58:59.955Z,14.43
2018-03-31T07:01:28.564Z,12.40
2018-03-31T07:03:57.170Z,13.07
2018-03-31T07:06:25.823Z,12.97
2018-03-31T07:08:54.435Z,13.03
2018-03-31T07:11:23.051Z,12.67
2018-03-31T07:13:54.145Z,12.60
2018-03-31T07:16:22.771Z,12.83
2018-03-31T07:18:51.479Z,12.67
2018-03-31T07:21:20.160Z,11.30
2018-03-31T07:23:48.813Z,12.03
2018-03-31T07:26:17.419Z,13.07
2018-03-31T07:28:46.072Z,11.77
2018-03-31T07:31:14.691Z,12.27
2018-03-31T07:33:43.306Z,11.80
2018-03-31T07:36:12.684Z,10.73
2018-03-31T07:38:41.278Z,11.80
2018-03-31T07:41:09.883Z,11.57
2018-03-31T07:43:38.527Z,10.90
2018-03-31T07:46:07.174Z,12.17
2018-03-31T07:48:35.823Z,11.47
2018-03-31T07:51:04.432Z,12.40
2018-03-31T07:53:33.034Z,12.17
2018-03-31T07:56:02.418Z,13.00
2018-03-31T07:58:31.172Z,13.13
2018-03-31T08:00:59.829Z,14.10
2018-03-31T08:03:28.665Z,15.17
2018-03-31T08:05:57.260Z,14.43
2018-03-31T08:08:25.876Z,14.60
2018-03-31T08:10:54.535Z,14.90
2018-03-31T08:13:23.150Z,14.20
2018-03-31T08:15:52.264Z,13.67
2018-03-31T08:18:21.003Z,13.97
2018-03-31T08:20:49.607Z,13.43
2018-03-31T08:23:18.268Z,13.20
2018-03-31T08:25:46.918Z,12.53
2018-03-31T08:28:15.541Z,11.70
2018-03-31T08:30:44.154Z,10.97
2018-03-31T08:33:16.387Z,11.13
2018-03-31T08:35:45.007Z,10.30
2018-03-31T08:38:13.782Z,9.77
2018-03-31T08:40:42.387Z,10.33
2018-03-31T08:43:10.999Z,10.37
2018-03-31T08:45:39.637Z,9.10
2018-03-31T08:48:08.254Z,8.83
2018-03-31T08:50:36.846Z,7.03
2018-03-31T08:53:05.490Z,7.50
2018-03-31T08:55:34.098Z,7.10
2018-03-31T08:58:04.383Z,7.37
2018-03-31T09:00:32.990Z,6.50
2018-03-31T09:03:01.599Z,6.73
2018-03-31T09:05:30.258Z,6.87
2018-03-31T09:07:58.867Z,6.73
2018-03-31T09:10:27.466Z,6.60
2018-03-31T09:12:56.295Z,7.03
2018-03-31T09:15:24.906Z,6.50
2018-03-31T09:17:54.338Z,6.87
2018-03-31T09:20:23.173Z,6.17
2018-03-31T09:22:51.822Z,6.40
2018-03-31T09:25:20.418Z,5.97
2018-03-31T09:27:49.547Z,5.87
2018-03-31T09:30:18.176Z,5.90
2018-03-31T09:32:46.778Z,5.13
2018-03-31T09:35:16.259Z,5.37
2018-03-31T09:37:44.869Z,6.30
2018-03-31T09:40:13.819Z,6.03
2018-03-31T09:42:42.427Z,5.40
2018-03-31T09:45:11.045Z,4.80
2018-03-31T09:47:39.962Z,5.07
2018-03-31T09:50:08.562Z,2.10
2018-03-31T09:52:37.208Z,1.23
2018-03-31T09:55:06.216Z,1.57
2018-03-31T09:57:35.125Z,1.70
2018-03-31T10:00:03.727Z,1.53
2018-03-31T10:02:32.587Z,1.20
2018-03-31T10:05:01.305Z,1.80
2018-03-31T10:07:30.035Z,1.73
2018-03-31T10:09:58.811Z,1.53
2018-03-31T10:12:27.420Z,1.67
2018-03-31T10:14:57.160Z,1.80
2018-03-31T10:17:26.906Z,1.43
2018-03-31T10:19:55.509Z,1.63
2018-03-31T10:22:24.144Z,1.20
2018-03-31T10:24:52.755Z,1.10
2018-03-31T10:27:21.396Z,1.80
2018-03-31T10:29:50.049Z,1.40
2018-03-31T10:32:19.892Z,1.20
2018-03-31T10:34:48.667Z,1.43
2018-03-31T10:37:17.370Z,1.33
2018-03-31T10:39:46.031Z,1.47
2018-03-31T10:42:14.635Z,1.30
2018-03-31T10:44:43.237Z,1.00
2018-03-31T10:47:14.951Z,1.50
2018-03-31T10:49:43.552Z,1.20
2018-03-31T10:52:12.811Z,1.30
2018-03-31T10:54:41.392Z,1.03
2018-03-31T10:57:10.000Z,1.03
2018-03-31T10:59:40.251Z,1.20
2018-03-31T11:02:08.850Z,1.40
2018-03-31T11:04:37.459Z,1.10
2018-03-31T11:07:06.323Z,1.10
2018-03-31T11:09:34.928Z,1.27
2018-03-31T11:12:03.648Z,1.60
2018-03-31T11:14:32.473Z,1.90
2018-03-31T11:17:01.080Z,1.97
2018-03-31T11:19:30.402Z,1.53
2018-03-31T11:21:59.248Z,1.50
2018-03-31T11:24:27.843Z,1.40
2018-03-31T11:26:56.473Z,1.63
2018-03-31T11:29:25.198Z,1.63
2018-03-31T11:31:53.815Z,1.50
2018-03-31T11:34:22.435Z,1.53
2018-03-31T11:36:51.673Z,1.37
2018-03-31T11:39:20.275Z,2.10
2018-03-31T11:41:48.838Z,1.50
2018-03-31T11:44:17.678Z,1.70
2018-03-31T11:46:46.288Z,1.70
2018-03-31T11:49:18.371Z,2.10
2018-03-31T11:51:46.995Z,1.87
2018-03-31T11:54:16.492Z,2.03
2018-03-31T11:56:45.096Z,1.90
2018-03-31T11:59:13.705Z,2.00
2018-03-31T12:01:42.453Z,1.80
2018-03-31T12:04:11.076Z,1.70
2018-03-31T12:06:39.673Z,2.00
2018-03-31T12:09:08.478Z,2.10
2018-03-31T12:11:37.079Z,2.37
2018-03-31T12:14:05.694Z,2.50
2018-03-31T12:16:34.918Z,2.10
2018-03-31T12:19:04.608Z,2.00
2018-03-31T12:21:33.215Z,2.00
2018-03-31T12:24:01.887Z,2.05
2018-03-31T12:26:30.511Z,2.10
2018-03-31T12:28:59.111Z,1.87
2018-03-31T12:31:27.762Z,2.28
2018-03-31T12:33:56.403Z,2.00
2018-03-31T12:36:25.006Z,2.17
2018-03-31T12:38:54.305Z,1.80
2018-03-31T12:41:23.170Z,1.80
2018-03-31T12:43:51.762Z,1.77
2018-03-31T12:46:20.614Z,2.42
2018-03-31T12:48:49.228Z,2.05
2018-03-31T12:51:17.843Z,1.75
2018-03-31T12:53:46.491Z,1.83
2018-03-31T12:56:15.188Z,1.55
2018-03-31T12:58:45.291Z,1.70
2018-03-31T13:01:13.918Z,1.50
2018-03-31T13:03:42.650Z,1.87
2018-03-31T13:06:11.453Z,1.80
2018-03-31T13:08:40.054Z,1.90
2018-03-31T13:11:09.652Z,1.90
2018-03-31T13:13:38.481Z,1.87
2018-03-31T13:16:07.041Z,2.10
2018-03-31T13:18:35.674Z,1.80
2018-03-31T13:21:07.134Z,1.62
2018-03-31T13:23:36.107Z,2.03
2018-03-31T13:26:04.717Z,1.85
2018-03-31T13:28:33.375Z,1.52
2018-03-31T13:31:02.030Z,1.80
2018-03-31T13:33:30.630Z,2.00
2018-03-31T13:35:59.258Z,1.52
2018-03-31T13:38:28.992Z,1.60
2018-03-31T13:40:57.593Z,1.70
2018-03-31T13:43:26.190Z,1.60
2018-03-31T13:45:54.839Z,1.80
2018-03-31T13:48:23.445Z,1.75
2018-03-31T13:50:52.064Z,1.50
2018-03-31T13:53:20.895Z,1.40
2018-03-31T13:55:49.511Z,1.25
2018-03-31T13:58:18.120Z,1.87
2018-03-31T14:00:47.893Z,1.40
2018-03-31T14:03:16.518Z,1.20
2018-03-31T14:05:45.115Z,1.02
2018-03-31T14:08:13.809Z,1.20
2018-03-31T14:10:42.430Z,1.48
2018-03-31T14:13:11.038Z,1.30
2018-03-31T14:15:39.812Z,1.35
2018-03-31T14:18:08.388Z,1.52
2018-03-31T14:20:36.990Z,1.30
2018-03-31T14:23:07.882Z,1.50
2018-03-31T14:25:36.398Z,1.13
2018-03-31T14:28:05.002Z,1.50
2018-03-31T14:30:33.853Z,1.57
2018-03-31T14:33:02.463Z,1.70
2018-03-31T14:35:31.095Z,1.60
2018-03-31T14:37:59.744Z,1.70
2018-03-31T14:40:28.335Z,1.60
2018-03-31T14:42:56.952Z,1.37
2018-03-31T14:45:25.995Z,1.60
2018-03-31T14:47:54.774Z,1.60
2018-03-31T14:50:23.367Z,1.50
2018-03-31T14:52:52.182Z,1.77
2018-03-31T14:55:20.779Z,1.70
2018-03-31T14:57:50.736Z,1.50
2018-03-31T15:00:19.509Z,1.80
2018-03-31T15:02:48.115Z,1.60
2018-03-31T15:05:16.764Z,1.67
2018-03-31T15:07:45.415Z,1.73
2018-03-31T15:10:14.023Z,1.70
2018-03-31T15:12:42.634Z,1.60
2018-03-31T15:15:12.337Z,1.70
2018-03-31T15:17:40.935Z,1.70
2018-03-31T15:20:09.558Z,1.97
2018-03-31T15:22:38.226Z,1.90
2018-03-31T15:25:08.170Z,1.30
2018-03-31T15:27:36.775Z,1.63
2018-03-31T15:30:05.673Z,1.53
2018-03-31T15:32:34.258Z,1.73
2018-03-31T15:35:03.799Z,1.93
2018-03-31T15:37:32.423Z,1.83
2018-03-31T15:40:01.049Z,2.03
2018-03-31T15:42:29.856Z,2.33
2018-03-31T15:44:58.565Z,2.30
2018-03-31T15:47:27.188Z,2.20
2018-03-31T15:49:56.075Z,2.30
2018-03-31T15:52:24.808Z,2.13
2018-03-31T15:54:53.432Z,1.83
2018-03-31T15:57:22.270Z,2.10
2018-03-31T15:59:50.875Z,2.43
2018-03-31T16:02:19.478Z,2.27
2018-03-31T16:04:48.320Z,4.60
2018-03-31T16:07:16.934Z,3.63
2018-03-31T16:09:45.544Z,2.57
2018-03-31T16:12:15.831Z,2.27
2018-03-31T16:14:44.450Z,3.07
2018-03-31T16:17:13.043Z,2.37
2018-03-31T16:19:41.754Z,3.67
2018-03-31T16:22:10.535Z,2.30
2018-03-31T16:24:39.163Z,1.83
2018-03-31T16:27:08.546Z,2.00
2018-03-31T16:29:37.174Z,1.40
2018-03-31T16:32:05.760Z,1.80
2018-03-31T16:34:34.679Z,1.80
2018-03-31T16:37:03.451Z,1.63
2018-03-31T16:39:32.055Z,1.37
2018-03-31T16:42:00.808Z,1.60
2018-03-31T16:44:29.423Z,1.93
2018-03-31T16:46:58.085Z,2.00
2018-03-31T16:49:26.680Z,2.00
2018-03-31T16:51:55.298Z,1.53
2018-03-31T16:54:24.424Z,1.67
2018-03-31T16:56:53.024Z,1.40
2018-03-31T16:59:21.618Z,1.57
2018-03-31T17:01:50.287Z,1.50
2018-03-31T17:04:18.897Z,1.60
2018-03-31T17:06:47.523Z,1.57
2018-03-31T17:09:16.496Z,1.60
2018-03-31T17:11:45.100Z,1.43
2018-03-31T17:14:13.698Z,1.40
2018-03-31T17:16:43.433Z,1.43
2018-03-31T17:19:12.012Z,1.63
2018-03-31T17:21:40.631Z,1.80
2018-03-31T17:24:09.590Z,3.20
2018-03-31T17:26:38.188Z,2.50
2018-03-31T17:29:07.915Z,2.97
2018-03-31T17:31:36.963Z,1.97
2018-03-31T17:34:05.576Z,2.60
2018-03-31T17:36:34.227Z,2.63
2018-03-31T17:39:03.507Z,2.73
2018-03-31T17:41:32.132Z,5.13
2018-03-31T17:44:00.743Z,6.63
2018-03-31T17:46:29.380Z,12.00
2018-03-31T17:48:58.000Z,9.80
2018-03-31T17:51:26.756Z,4.07
2018-03-31T17:53:55.366Z,3.33
2018-03-31T17:56:24.097Z,4.33
2018-03-31T17:58:54.157Z,2.10
2018-03-31T18:01:22.756Z,2.40
2018-03-31T18:03:51.386Z,2.67
2018-03-31T18:06:21.561Z,2.70
2018-03-31T18:08:50.268Z,2.67
2018-03-31T18:11:18.881Z,3.20
2018-03-31T18:13:48.844Z,3.57
2018-03-31T18:16:17.445Z,3.03
2018-03-31T18:18:46.069Z,2.73
2018-03-31T18:21:14.952Z,3.03
2018-03-31T18:23:43.597Z,3.13
2018-03-31T18:26:12.175Z,3.50
2018-03-31T18:28:42.591Z,3.07
2018-03-31T18:31:12.335Z,3.50
2018-03-31T18:33:40.989Z,3.00
2018-03-31T18:36:10.392Z,7.67
2018-03-31T18:38:38.988Z,5.13
2018-03-31T18:41:07.600Z,4.10
2018-03-31T18:43:36.278Z,5.00
2018-03-31T18:46:04.879Z,4.67
2018-03-31T18:48:33.489Z,4.63
2018-03-31T18:51:02.154Z,3.87
2018-03-31T18:53:30.794Z,3.53
2018-03-31T18:55:59.531Z,4.07
2018-03-31T18:58:29.904Z,3.10
2018-03-31T19:00:58.536Z,2.83
2018-03-31T19:03:27.154Z,2.93
2018-03-31T19:05:56.065Z,2.90
2018-03-31T19:08:24.660Z,2.80
2018-03-31T19:10:53.289Z,4.20
2018-03-31T19:13:22.222Z,4.07
2018-03-31T19:15:50.970Z,3.60
2018-03-31T19:18:19.580Z,3.47
2018-03-31T19:20:49.410Z,3.43
2018-03-31T19:23:18.254Z,3.73
2018-03-31T19:25:46.858Z,3.13
2018-03-31T19:28:15.684Z,3.20
2018-03-31T19:30:50.256Z,2.90
2018-03-31T19:33:20.525Z,3.20
2018-03-31T19:35:54.824Z,3.00
2018-03-31T19:38:23.885Z,3.50
2018-03-31T19:40:52.588Z,3.30
2018-03-31T19:43:21.208Z,3.80
2018-03-31T19:45:49.907Z,3.73
2018-03-31T19:48:18.514Z,3.57
2018-03-31T19:50:47.140Z,3.83
2018-03-31T19:53:16.054Z,3.60
2018-03-31T19:55:44.662Z,4.00
2018-03-31T19:58:14.954Z,4.17
2018-03-31T20:00:43.743Z,4.00
2018-03-31T20:03:12.349Z,4.23
2018-03-31T20:05:41.001Z,4.23
2018-03-31T20:08:09.660Z,4.23
2018-03-31T20:10:38.332Z,4.57
2018-03-31T20:13:06.945Z,4.33
2018-03-31T20:15:36.380Z,4.20
2018-03-31T20:18:04.997Z,3.93
2018-03-31T20:20:33.619Z,3.63
2018-03-31T20:23:02.409Z,4.00
2018-03-31T20:25:31.195Z,3.73
2018-03-31T20:27:59.792Z,3.63
2018-03-31T20:30:28.455Z,3.47
2018-03-31T20:32:57.147Z,4.17
2018-03-31T20:35:26.931Z,4.10
2018-03-31T20:37:55.612Z,4.07
2018-03-31T20:40:24.228Z,4.70
2018-03-31T20:42:52.825Z,4.60
2018-03-31T20:45:21.857Z,4.50
2018-03-31T20:47:50.432Z,4.83
2018-03-31T20:50:19.035Z,4.70
2018-03-31T20:52:48.825Z,5.80
2018-03-31T20:55:17.465Z,14.07
2018-03-31T20:57:46.083Z,12.70
2018-03-31T21:00:14.734Z,8.63
2018-03-31T21:02:43.381Z,10.57
2018-03-31T21:05:12.016Z,8.67
2018-03-31T21:07:40.680Z,7.77
2018-03-31T21:10:09.280Z,7.33
2018-03-31T21:12:37.882Z,7.30
2018-03-31T21:15:06.528Z,6.63
2018-03-31T21:17:35.096Z,6.20
2018-03-31T21:20:03.751Z,5.57
2018-03-31T21:22:32.370Z,4.60
2018-03-31T21:25:00.990Z,4.30
2018-03-31T21:27:29.708Z,4.20
2018-03-31T21:29:58.325Z,4.20
2018-03-31T21:32:26.949Z,4.40
2018-03-31T21:34:55.586Z,3.90
2018-03-31T21:37:24.914Z,3.60
2018-03-31T21:39:53.524Z,4.03
2018-03-31T21:42:22.171Z,3.70
2018-03-31T21:44:50.786Z,4.13
2018-03-31T21:47:19.408Z,4.33
2018-03-31T21:49:49.359Z,3.77
2018-03-31T21:52:17.983Z,4.43
2018-03-31T21:54:46.604Z,4.00
2018-03-31T21:57:15.249Z,3.60
2018-03-31T21:59:45.621Z,4.00
2018-03-31T22:02:14.271Z,4.63
2018-03-31T22:04:42.942Z,4.20
2018-03-31T22:07:11.552Z,3.87
2018-03-31T22:09:40.154Z,4.53
2018-03-31T22:12:09.145Z,4.83
2018-03-31T22:14:43.583Z,4.30
2018-03-31T22:17:12.552Z,4.00
2018-03-31T22:19:41.222Z,3.93
2018-03-31T22:22:09.860Z,3.93
2018-03-31T22:24:38.532Z,3.70
2018-03-31T22:27:07.134Z,4.10
2018-03-31T22:29:35.738Z,4.00
2018-03-31T22:32:04.531Z,4.40
2018-03-31T22:34:33.223Z,4.07
2018-03-31T22:37:01.838Z,4.00
2018-03-31T22:39:31.941Z,3.93
2018-03-31T22:42:00.546Z,4.20
2018-03-31T22:44:29.157Z,4.13
2018-03-31T22:46:57.801Z,4.70
2018-03-31T22:49:26.409Z,4.37
2018-03-31T22:51:55.011Z,4.60
2018-03-31T22:54:25.223Z,3.90
2018-03-31T22:56:53.813Z,4.20
2018-03-31T22:59:22.424Z,3.97
2018-03-31T23:01:51.333Z,4.10
2018-03-31T23:04:19.928Z,4.60
2018-03-31T23:06:48.599Z,5.57
2018-03-31T23:09:17.245Z,4.03
2018-03-31T23:11:45.872Z,4.33
2018-03-31T23:14:14.439Z,3.53
2018-03-31T23:16:43.283Z,3.80
2018-03-31T23:19:11.875Z,3.67
2018-03-31T23:21:40.455Z,3.23
2018-03-31T23:24:09.094Z,3.60
2018-03-31T23:26:37.698Z,3.43
2018-03-31T23:29:06.301Z,5.50
2018-03-31T23:31:34.941Z,3.50
2018-03-31T23:34:03.538Z,3.80
2018-03-31T23:36:32.138Z,3.50
2018-03-31T23:39:06.305Z,6.10
2018-03-31T23:41:36.030Z,10.87
2018-03-31T23:44:04.979Z,10.80
2018-03-31T23:46:33.577Z,8.80
2018-03-31T23:49:02.197Z,5.07
2018-03-31T23:51:31.132Z,4.07
2018-03-31T23:53:59.738Z,4.17
2018-03-31T23:56:28.493Z,3.80
2018-03-31T23:58:58.017Z,5.93
